RYR16EA LFBO-LIPH
Flight info
| Callsign | RYR16EA |
|---|---|
| Flight time | 1h 18m |
| Altitude | 34000 |
| Route | MEN DCT NINUN DCT LATAM DCT ROMAM/N0431F350 DCT ETIDO DCT NEDRU DCT RILIP DCT EMMEF DCT LAPRI/N0426F340 DCT MOGBO DCT EVANO DCT OSKOR L615 ADOSA |
| Aircraft | B738/M-SDE3FGILRWY/SB1 |
Departure
| Time | 2026-04-21 14:48 |
|---|---|
| Airport | Toulouse-Blagnac Airport (LFBO) |
Arrival
| Time | 2026-04-21 16:06 |
|---|---|
| Airport | Treviso Airport (LIPH) |
| Time | Latitude | Longitude | Altitude | Speed | Heading |
|---|---|---|---|---|---|
| 2026-04-21 14:19 | 43.63308 | 1.36955 | 486 ft | 0 kts | 130° |
| 2026-04-21 14:37 | 43.63311 | 1.36951 | 482 ft | 3 kts | 130° |
| 2026-04-21 14:37 | 43.63329 | 1.36922 | 486 ft | 4 kts | 131° |
| 2026-04-21 14:37 | 43.63347 | 1.36895 | 484 ft | 4 kts | 141° |
| 2026-04-21 14:37 | 43.63367 | 1.36880 | 487 ft | 4 kts | 194° |
| 2026-04-21 14:38 | 43.63376 | 1.36886 | 494 ft | 1 kts | 232° |
| 2026-04-21 14:38 | 43.63377 | 1.36888 | 494 ft | 0 kts | 232° |
| 2026-04-21 14:41 | 43.63373 | 1.36881 | 494 ft | 4 kts | 231° |
| 2026-04-21 14:41 | 43.63326 | 1.36794 | 486 ft | 19 kts | 234° |
| 2026-04-21 14:41 | 43.63252 | 1.36616 | 493 ft | 15 kts | 262° |
| 2026-04-21 14:42 | 43.63315 | 1.36512 | 494 ft | 15 kts | 322° |
| 2026-04-21 14:42 | 43.63395 | 1.36428 | 490 ft | 15 kts | 323° |
| 2026-04-21 14:42 | 43.63484 | 1.36335 | 490 ft | 17 kts | 322° |
| 2026-04-21 14:42 | 43.63591 | 1.36223 | 493 ft | 22 kts | 325° |
| 2026-04-21 14:43 | 43.63719 | 1.36092 | 491 ft | 23 kts | 323° |
| 2026-04-21 14:43 | 43.63817 | 1.35943 | 491 ft | 18 kts | 259° |
| 2026-04-21 14:43 | 43.63744 | 1.35802 | 496 ft | 18 kts | 233° |
| 2026-04-21 14:43 | 43.63668 | 1.35667 | 487 ft | 18 kts | 226° |
| 2026-04-21 14:44 | 43.63587 | 1.35516 | 493 ft | 22 kts | 233° |
| 2026-04-21 14:44 | 43.63491 | 1.35340 | 493 ft | 23 kts | 235° |
| 2026-04-21 14:44 | 43.63525 | 1.35200 | 488 ft | 15 kts | 322° |
| 2026-04-21 14:44 | 43.63606 | 1.35118 | 491 ft | 14 kts | 330° |
| 2026-04-21 14:45 | 43.63689 | 1.35031 | 494 ft | 17 kts | 322° |
| 2026-04-21 14:45 | 43.63810 | 1.34905 | 494 ft | 27 kts | 323° |
| 2026-04-21 14:45 | 43.63912 | 1.34798 | 485 ft | 1 kts | 321° |
| 2026-04-21 14:45 | 43.63938 | 1.34768 | 494 ft | 11 kts | 325° |
| 2026-04-21 14:46 | 43.64030 | 1.34678 | 491 ft | 21 kts | 323° |
| 2026-04-21 14:46 | 43.64175 | 1.34527 | 494 ft | 29 kts | 323° |
| 2026-04-21 14:46 | 43.64314 | 1.34460 | 492 ft | 18 kts | 34° |
| 2026-04-21 14:46 | 43.64388 | 1.34590 | 488 ft | 14 kts | 64° |
| 2026-04-21 14:47 | 43.64362 | 1.34646 | 491 ft | 0 kts | 145° |
| 2026-04-21 14:47 | 43.64341 | 1.34666 | 487 ft | 24 kts | 143° |
| 2026-04-21 14:47 | 43.64005 | 1.35018 | 490 ft | 96 kts | 142° |
| 2026-04-21 14:48 | 43.63307 | 1.35748 | 488 ft | 156 kts | 142° |
| 2026-04-21 14:48 | 43.62353 | 1.36659 | 1095 ft | 163 kts | 142° |
| 2026-04-21 14:48 | 43.61466 | 1.37494 | 2062 ft | 155 kts | 139° |
| 2026-04-21 14:48 | 43.60563 | 1.38426 | 2576 ft | 172 kts | 139° |
| 2026-04-21 14:49 | 43.59547 | 1.39574 | 2854 ft | 202 kts | 137° |
| 2026-04-21 14:49 | 43.58388 | 1.40904 | 3064 ft | 228 kts | 138° |
| 2026-04-21 14:49 | 43.57117 | 1.42341 | 3430 ft | 250 kts | 140° |
| 2026-04-21 14:49 | 43.55683 | 1.43815 | 3985 ft | 263 kts | 142° |
| 2026-04-21 14:50 | 43.54302 | 1.45481 | 4679 ft | 271 kts | 123° |
| 2026-04-21 14:50 | 43.53755 | 1.47950 | 5380 ft | 275 kts | 88° |
| 2026-04-21 14:50 | 43.54318 | 1.50465 | 6055 ft | 282 kts | 53° |
| 2026-04-21 14:50 | 43.55818 | 1.52162 | 6729 ft | 282 kts | 18° |
| 2026-04-21 14:51 | 43.57723 | 1.52572 | 7555 ft | 279 kts | 359° |
| 2026-04-21 14:51 | 43.59676 | 1.52801 | 8278 ft | 285 kts | 6° |
| 2026-04-21 14:51 | 43.61619 | 1.53393 | 9110 ft | 288 kts | 13° |
| 2026-04-21 14:51 | 43.63532 | 1.54339 | 9803 ft | 297 kts | 20° |
| 2026-04-21 14:52 | 43.65432 | 1.55577 | 10280 ft | 312 kts | 25° |
| 2026-04-21 14:52 | 43.67407 | 1.57092 | 10466 ft | 336 kts | 28° |
| 2026-04-21 14:52 | 43.69430 | 1.58812 | 10973 ft | 346 kts | 30° |
| 2026-04-21 14:52 | 43.71460 | 1.60633 | 11714 ft | 349 kts | 31° |
| 2026-04-21 14:53 | 43.73483 | 1.62497 | 12502 ft | 351 kts | 31° |
| 2026-04-21 14:53 | 43.75517 | 1.64387 | 13270 ft | 354 kts | 31° |
| 2026-04-21 14:53 | 43.77573 | 1.66300 | 14015 ft | 357 kts | 31° |
| 2026-04-21 14:53 | 43.79638 | 1.68235 | 14738 ft | 361 kts | 34° |
| 2026-04-21 14:54 | 43.81459 | 1.70665 | 15451 ft | 369 kts | 51° |
| 2026-04-21 14:54 | 43.82771 | 1.73741 | 16184 ft | 375 kts | 62° |
| 2026-04-21 14:54 | 43.83882 | 1.77039 | 16862 ft | 380 kts | 64° |
| 2026-04-21 14:54 | 43.84960 | 1.80394 | 17547 ft | 384 kts | 64° |
| 2026-04-21 14:55 | 43.86054 | 1.83793 | 18226 ft | 388 kts | 63° |
| 2026-04-21 14:55 | 43.87170 | 1.87210 | 18833 ft | 391 kts | 63° |
| 2026-04-21 14:55 | 43.88311 | 1.90655 | 19442 ft | 394 kts | 63° |
| 2026-04-21 14:55 | 43.89468 | 1.94118 | 20042 ft | 398 kts | 62° |
| 2026-04-21 14:56 | 43.90639 | 1.97617 | 20626 ft | 402 kts | 62° |
| 2026-04-21 14:56 | 43.91818 | 2.01144 | 21203 ft | 405 kts | 62° |
| 2026-04-21 14:56 | 43.93005 | 2.04701 | 21785 ft | 408 kts | 62° |
| 2026-04-21 14:56 | 43.94201 | 2.08293 | 22338 ft | 412 kts | 62° |
| 2026-04-21 14:57 | 43.95408 | 2.11922 | 22887 ft | 416 kts | 62° |
| 2026-04-21 14:57 | 43.96621 | 2.15574 | 23445 ft | 419 kts | 62° |
| 2026-04-21 14:57 | 43.97845 | 2.19264 | 23874 ft | 423 kts | 62° |
| 2026-04-21 14:57 | 43.99078 | 2.22991 | 24348 ft | 426 kts | 62° |
| 2026-04-21 14:58 | 44.00315 | 2.26731 | 24790 ft | 429 kts | 62° |
| 2026-04-21 14:58 | 44.01561 | 2.30508 | 25229 ft | 432 kts | 62° |
| 2026-04-21 14:58 | 44.02820 | 2.34328 | 25629 ft | 436 kts | 62° |
| 2026-04-21 14:58 | 44.04086 | 2.38168 | 26042 ft | 439 kts | 62° |
| 2026-04-21 14:59 | 44.05359 | 2.42041 | 26465 ft | 442 kts | 62° |
| 2026-04-21 14:59 | 44.06754 | 2.45771 | 26836 ft | 440 kts | 50° |
| 2026-04-21 14:59 | 44.08831 | 2.48817 | 27225 ft | 433 kts | 37° |
| 2026-04-21 14:59 | 44.11090 | 2.51608 | 27660 ft | 435 kts | 37° |
| 2026-04-21 15:00 | 44.13351 | 2.54440 | 28028 ft | 439 kts | 37° |
| 2026-04-21 15:00 | 44.15618 | 2.57314 | 28376 ft | 443 kts | 38° |
| 2026-04-21 15:00 | 44.17893 | 2.60226 | 28745 ft | 445 kts | 38° |
| 2026-04-21 15:00 | 44.20172 | 2.63162 | 29129 ft | 448 kts | 38° |
| 2026-04-21 15:01 | 44.22463 | 2.66123 | 29523 ft | 450 kts | 38° |
| 2026-04-21 15:01 | 44.24752 | 2.69091 | 30048 ft | 448 kts | 38° |
| 2026-04-21 15:01 | 44.27026 | 2.72044 | 30539 ft | 446 kts | 38° |
| 2026-04-21 15:01 | 44.29296 | 2.74992 | 30891 ft | 446 kts | 38° |
| 2026-04-21 15:02 | 44.31575 | 2.77952 | 31209 ft | 448 kts | 38° |
| 2026-04-21 15:02 | 44.33861 | 2.80922 | 31558 ft | 449 kts | 38° |
| 2026-04-21 15:02 | 44.36142 | 2.83891 | 31940 ft | 448 kts | 38° |
| 2026-04-21 15:02 | 44.38423 | 2.86863 | 32326 ft | 448 kts | 38° |
| 2026-04-21 15:03 | 44.40700 | 2.89833 | 32710 ft | 447 kts | 37° |
| 2026-04-21 15:03 | 44.42975 | 2.92805 | 33101 ft | 447 kts | 37° |
| 2026-04-21 15:03 | 44.45246 | 2.95774 | 33449 ft | 448 kts | 37° |
| 2026-04-21 15:03 | 44.47524 | 2.98753 | 33759 ft | 448 kts | 37° |
| 2026-04-21 15:04 | 44.49806 | 3.01742 | 33933 ft | 451 kts | 37° |
| 2026-04-21 15:04 | 44.54407 | 3.07781 | 33935 ft | 452 kts | 37° |
| 2026-04-21 15:05 | 44.58953 | 3.13766 | 33941 ft | 446 kts | 37° |
| 2026-04-21 15:05 | 44.62805 | 3.20667 | 33947 ft | 458 kts | 56° |
| 2026-04-21 15:05 | 44.64334 | 3.24600 | 33914 ft | 459 kts | 56° |
| 2026-04-21 15:06 | 44.67387 | 3.32475 | 33925 ft | 459 kts | 56° |
| 2026-04-21 15:06 | 44.70500 | 3.40306 | 33921 ft | 459 kts | 55° |
| 2026-04-21 15:07 | 44.73639 | 3.48132 | 33936 ft | 460 kts | 55° |
| 2026-04-21 15:07 | 44.76754 | 3.55924 | 33932 ft | 460 kts | 55° |
| 2026-04-21 15:08 | 44.79876 | 3.63793 | 33938 ft | 461 kts | 56° |
| 2026-04-21 15:08 | 44.82989 | 3.71677 | 33941 ft | 460 kts | 56° |
| 2026-04-21 15:09 | 44.86098 | 3.79571 | 33938 ft | 461 kts | 56° |
| 2026-04-21 15:09 | 44.89207 | 3.87484 | 33943 ft | 462 kts | 55° |
| 2026-04-21 15:10 | 44.92309 | 3.95402 | 33946 ft | 461 kts | 55° |
| 2026-04-21 15:10 | 44.95411 | 4.03343 | 33956 ft | 462 kts | 55° |
| 2026-04-21 15:11 | 44.98508 | 4.11291 | 33950 ft | 462 kts | 55° |
| 2026-04-21 15:11 | 45.01598 | 4.19246 | 33961 ft | 462 kts | 56° |
| 2026-04-21 15:12 | 45.03798 | 4.27854 | 33958 ft | 474 kts | 76° |
| 2026-04-21 15:12 | 45.04551 | 4.37137 | 33954 ft | 476 kts | 81° |
| 2026-04-21 15:13 | 45.05181 | 4.46436 | 33962 ft | 475 kts | 80° |
| 2026-04-21 15:13 | 45.05854 | 4.55716 | 33956 ft | 474 kts | 80° |
| 2026-04-21 15:14 | 45.06554 | 4.64985 | 33961 ft | 474 kts | 79° |
| 2026-04-21 15:14 | 45.07251 | 4.74256 | 33958 ft | 474 kts | 79° |
| 2026-04-21 15:15 | 45.07935 | 4.83501 | 33963 ft | 472 kts | 79° |
| 2026-04-21 15:15 | 45.08611 | 4.92741 | 33975 ft | 472 kts | 79° |
| 2026-04-21 15:16 | 45.09281 | 5.02001 | 33978 ft | 473 kts | 79° |
| 2026-04-21 15:16 | 45.09945 | 5.11276 | 33963 ft | 474 kts | 79° |
| 2026-04-21 15:17 | 45.10262 | 5.20616 | 33962 ft | 480 kts | 89° |
| 2026-04-21 15:17 | 45.09737 | 5.30036 | 33965 ft | 481 kts | 91° |
| 2026-04-21 15:18 | 45.09264 | 5.39407 | 33984 ft | 481 kts | 90° |
| 2026-04-21 15:18 | 45.08887 | 5.48853 | 33969 ft | 481 kts | 89° |
| 2026-04-21 15:19 | 45.08539 | 5.58304 | 33955 ft | 480 kts | 89° |
| 2026-04-21 15:19 | 45.08172 | 5.67724 | 33964 ft | 481 kts | 89° |
| 2026-04-21 15:20 | 45.07793 | 5.77169 | 33958 ft | 480 kts | 89° |
| 2026-04-21 15:20 | 45.07359 | 5.86597 | 33935 ft | 480 kts | 91° |
| 2026-04-21 15:21 | 45.06713 | 5.96029 | 33923 ft | 482 kts | 92° |
| 2026-04-21 15:21 | 45.06043 | 6.05482 | 33894 ft | 485 kts | 92° |
| 2026-04-21 15:22 | 45.05398 | 6.14937 | 33937 ft | 481 kts | 92° |
| 2026-04-21 15:22 | 45.04760 | 6.24329 | 33935 ft | 479 kts | 92° |
| 2026-04-21 15:23 | 45.04107 | 6.33721 | 33904 ft | 480 kts | 92° |
| 2026-04-21 15:23 | 45.03419 | 6.43096 | 33914 ft | 479 kts | 92° |
| 2026-04-21 15:24 | 45.02720 | 6.52442 | 33911 ft | 477 kts | 93° |
| 2026-04-21 15:24 | 45.02021 | 6.61757 | 33909 ft | 476 kts | 93° |
| 2026-04-21 15:25 | 45.01327 | 6.71078 | 33890 ft | 477 kts | 93° |
| 2026-04-21 15:25 | 45.00658 | 6.80387 | 33896 ft | 477 kts | 92° |
| 2026-04-21 15:26 | 44.99975 | 6.89709 | 33912 ft | 478 kts | 92° |
| 2026-04-21 15:26 | 44.99281 | 6.99052 | 33905 ft | 479 kts | 93° |
| 2026-04-21 15:27 | 44.98579 | 7.08402 | 33887 ft | 478 kts | 93° |
| 2026-04-21 15:27 | 44.98002 | 7.16144 | 33910 ft | 477 kts | 91° |
| 2026-04-21 15:28 | 44.97993 | 7.25467 | 33912 ft | 474 kts | 83° |
| 2026-04-21 15:28 | 44.98170 | 7.34794 | 33910 ft | 476 kts | 85° |
| 2026-04-21 15:29 | 44.98987 | 7.43959 | 33925 ft | 466 kts | 68° |
| 2026-04-21 15:29 | 45.01229 | 7.52457 | 33915 ft | 461 kts | 62° |
| 2026-04-21 15:30 | 45.03581 | 7.60909 | 33911 ft | 462 kts | 62° |
| 2026-04-21 15:30 | 45.05893 | 7.69399 | 33924 ft | 463 kts | 63° |
| 2026-04-21 15:31 | 45.08180 | 7.77940 | 33921 ft | 465 kts | 63° |
| 2026-04-21 15:31 | 45.10459 | 7.86516 | 33920 ft | 465 kts | 63° |
| 2026-04-21 15:32 | 45.12734 | 7.95108 | 33921 ft | 466 kts | 63° |
| 2026-04-21 15:32 | 45.15003 | 8.03700 | 33915 ft | 466 kts | 63° |
| 2026-04-21 15:33 | 45.17253 | 8.12250 | 33921 ft | 466 kts | 63° |
| 2026-04-21 15:33 | 45.19523 | 8.20907 | 33910 ft | 465 kts | 63° |
| 2026-04-21 15:34 | 45.21754 | 8.29445 | 33913 ft | 465 kts | 63° |
| 2026-04-21 15:34 | 45.23992 | 8.38043 | 33913 ft | 464 kts | 64° |
| 2026-04-21 15:35 | 45.26219 | 8.46630 | 33920 ft | 464 kts | 64° |
| 2026-04-21 15:35 | 45.28441 | 8.55225 | 33841 ft | 462 kts | 64° |
| 2026-04-21 15:36 | 45.29534 | 8.59479 | 33528 ft | 455 kts | 64° |
| 2026-04-21 15:36 | 45.30609 | 8.63667 | 33248 ft | 448 kts | 63° |
| 2026-04-21 15:36 | 45.31671 | 8.67799 | 32976 ft | 443 kts | 63° |
| 2026-04-21 15:36 | 45.32726 | 8.71906 | 32707 ft | 441 kts | 63° |
| 2026-04-21 15:37 | 45.33771 | 8.75987 | 32441 ft | 438 kts | 63° |
| 2026-04-21 15:37 | 45.34779 | 8.80063 | 32175 ft | 437 kts | 64° |
| 2026-04-21 15:37 | 45.35751 | 8.84163 | 31932 ft | 436 kts | 65° |
| 2026-04-21 15:37 | 45.36701 | 8.88249 | 31668 ft | 435 kts | 65° |
| 2026-04-21 15:38 | 45.37645 | 8.92322 | 31411 ft | 433 kts | 65° |
| 2026-04-21 15:38 | 45.38584 | 8.96376 | 31154 ft | 429 kts | 64° |
| 2026-04-21 15:38 | 45.39515 | 9.00390 | 30825 ft | 426 kts | 64° |
| 2026-04-21 15:38 | 45.40443 | 9.04379 | 30484 ft | 423 kts | 64° |
| 2026-04-21 15:39 | 45.41365 | 9.08335 | 30175 ft | 420 kts | 64° |
| 2026-04-21 15:39 | 45.42283 | 9.12277 | 29788 ft | 419 kts | 64° |
| 2026-04-21 15:39 | 45.43196 | 9.16205 | 29384 ft | 417 kts | 64° |
| 2026-04-21 15:39 | 45.44103 | 9.20111 | 28999 ft | 414 kts | 63° |
| 2026-04-21 15:40 | 45.45001 | 9.23986 | 28638 ft | 412 kts | 63° |
| 2026-04-21 15:40 | 45.45896 | 9.27853 | 28278 ft | 410 kts | 63° |
| 2026-04-21 15:40 | 45.46784 | 9.31703 | 27903 ft | 408 kts | 63° |
| 2026-04-21 15:40 | 45.47665 | 9.35522 | 27549 ft | 405 kts | 63° |
| 2026-04-21 15:41 | 45.48541 | 9.39333 | 27239 ft | 404 kts | 63° |
| 2026-04-21 15:41 | 45.49414 | 9.43131 | 26880 ft | 402 kts | 63° |
| 2026-04-21 15:41 | 45.50271 | 9.46867 | 26525 ft | 401 kts | 63° |
| 2026-04-21 15:41 | 45.51133 | 9.50634 | 26171 ft | 400 kts | 63° |
| 2026-04-21 15:42 | 45.51993 | 9.54400 | 25816 ft | 399 kts | 62° |
| 2026-04-21 15:42 | 45.52849 | 9.58151 | 25465 ft | 397 kts | 62° |
| 2026-04-21 15:42 | 45.53701 | 9.61891 | 25120 ft | 396 kts | 62° |
| 2026-04-21 15:42 | 45.54550 | 9.65629 | 24770 ft | 395 kts | 62° |
| 2026-04-21 15:43 | 45.55397 | 9.69359 | 24387 ft | 395 kts | 62° |
| 2026-04-21 15:43 | 45.56242 | 9.73087 | 24049 ft | 395 kts | 62° |
| 2026-04-21 15:43 | 45.57088 | 9.76824 | 23663 ft | 396 kts | 62° |
| 2026-04-21 15:43 | 45.57932 | 9.80563 | 23282 ft | 396 kts | 63° |
| 2026-04-21 15:44 | 45.58774 | 9.84302 | 22889 ft | 394 kts | 63° |
| 2026-04-21 15:44 | 45.59607 | 9.88011 | 22514 ft | 393 kts | 64° |
| 2026-04-21 15:44 | 45.60439 | 9.91719 | 22157 ft | 390 kts | 64° |
| 2026-04-21 15:44 | 45.61265 | 9.95405 | 21805 ft | 388 kts | 64° |
| 2026-04-21 15:45 | 45.62084 | 9.99068 | 21458 ft | 387 kts | 65° |
| 2026-04-21 15:45 | 45.62901 | 10.02722 | 21113 ft | 385 kts | 65° |
| 2026-04-21 15:45 | 45.63712 | 10.06356 | 20783 ft | 383 kts | 66° |
| 2026-04-21 15:45 | 45.64504 | 10.09977 | 20419 ft | 383 kts | 68° |
| 2026-04-21 15:46 | 45.64958 | 10.13749 | 20178 ft | 385 kts | 83° |
| 2026-04-21 15:46 | 45.64984 | 10.17560 | 19959 ft | 383 kts | 86° |
| 2026-04-21 15:46 | 45.64941 | 10.21363 | 19638 ft | 382 kts | 87° |
| 2026-04-21 15:46 | 45.64895 | 10.25156 | 19316 ft | 381 kts | 87° |
| 2026-04-21 15:47 | 45.64863 | 10.28932 | 18974 ft | 380 kts | 87° |
| 2026-04-21 15:47 | 45.64843 | 10.32705 | 18653 ft | 379 kts | 88° |
| 2026-04-21 15:47 | 45.64825 | 10.36457 | 18311 ft | 377 kts | 87° |
| 2026-04-21 15:47 | 45.64808 | 10.40194 | 17937 ft | 376 kts | 88° |
| 2026-04-21 15:48 | 45.64795 | 10.43921 | 17644 ft | 372 kts | 88° |
| 2026-04-21 15:48 | 45.64794 | 10.47575 | 17429 ft | 366 kts | 87° |
| 2026-04-21 15:48 | 45.64796 | 10.51192 | 17132 ft | 363 kts | 87° |
| 2026-04-21 15:48 | 45.64800 | 10.54794 | 16801 ft | 362 kts | 87° |
| 2026-04-21 15:49 | 45.64801 | 10.58390 | 16457 ft | 361 kts | 88° |
| 2026-04-21 15:49 | 45.64800 | 10.61962 | 16149 ft | 358 kts | 88° |
| 2026-04-21 15:49 | 45.64785 | 10.65508 | 15885 ft | 354 kts | 89° |
| 2026-04-21 15:49 | 45.64747 | 10.69015 | 15581 ft | 352 kts | 89° |
| 2026-04-21 15:50 | 45.64706 | 10.72502 | 15265 ft | 350 kts | 89° |
| 2026-04-21 15:50 | 45.64666 | 10.75981 | 14938 ft | 350 kts | 89° |
| 2026-04-21 15:50 | 45.64627 | 10.79453 | 14608 ft | 349 kts | 89° |
| 2026-04-21 15:50 | 45.64589 | 10.82913 | 14288 ft | 347 kts | 89° |
| 2026-04-21 15:51 | 45.64556 | 10.86337 | 14058 ft | 343 kts | 89° |
| 2026-04-21 15:51 | 45.64525 | 10.89738 | 13735 ft | 342 kts | 89° |
| 2026-04-21 15:51 | 45.64495 | 10.93122 | 13385 ft | 341 kts | 89° |
| 2026-04-21 15:51 | 45.64463 | 10.96498 | 13034 ft | 337 kts | 89° |
| 2026-04-21 15:52 | 45.64428 | 10.99790 | 12719 ft | 325 kts | 89° |
| 2026-04-21 15:52 | 45.64394 | 11.02972 | 12405 ft | 316 kts | 88° |
| 2026-04-21 15:52 | 45.64366 | 11.06044 | 12183 ft | 304 kts | 88° |
| 2026-04-21 15:52 | 45.64342 | 11.08986 | 11909 ft | 296 kts | 88° |
| 2026-04-21 15:53 | 45.64318 | 11.11932 | 11605 ft | 289 kts | 88° |
| 2026-04-21 15:53 | 45.64295 | 11.14773 | 11326 ft | 283 kts | 88° |
| 2026-04-21 15:53 | 45.64271 | 11.17517 | 11063 ft | 277 kts | 88° |
| 2026-04-21 15:53 | 45.64247 | 11.20280 | 10781 ft | 273 kts | 88° |
| 2026-04-21 15:54 | 45.64223 | 11.22946 | 10521 ft | 272 kts | 88° |
| 2026-04-21 15:54 | 45.64198 | 11.25651 | 10273 ft | 275 kts | 88° |
| 2026-04-21 15:54 | 45.64172 | 11.28417 | 10096 ft | 277 kts | 88° |
| 2026-04-21 15:54 | 45.64145 | 11.31132 | 9899 ft | 271 kts | 88° |
| 2026-04-21 15:55 | 45.64118 | 11.33818 | 9612 ft | 270 kts | 88° |
| 2026-04-21 15:55 | 45.64090 | 11.36491 | 9342 ft | 268 kts | 88° |
| 2026-04-21 15:55 | 45.64062 | 11.39140 | 9069 ft | 266 kts | 89° |
| 2026-04-21 15:55 | 45.64033 | 11.41778 | 8795 ft | 265 kts | 89° |
| 2026-04-21 15:56 | 45.64005 | 11.44399 | 8539 ft | 262 kts | 88° |
| 2026-04-21 15:56 | 45.63982 | 11.46982 | 8329 ft | 258 kts | 89° |
| 2026-04-21 15:56 | 45.63961 | 11.49537 | 8074 ft | 257 kts | 89° |
| 2026-04-21 15:56 | 45.63938 | 11.52086 | 7819 ft | 255 kts | 89° |
| 2026-04-21 15:57 | 45.63915 | 11.54618 | 7565 ft | 254 kts | 90° |
| 2026-04-21 15:57 | 45.63888 | 11.57134 | 7316 ft | 253 kts | 91° |
| 2026-04-21 15:57 | 45.63852 | 11.59640 | 7071 ft | 251 kts | 91° |
| 2026-04-21 15:57 | 45.63815 | 11.62127 | 6821 ft | 250 kts | 92° |
| 2026-04-21 15:58 | 45.63777 | 11.64608 | 6563 ft | 249 kts | 92° |
| 2026-04-21 15:58 | 45.63562 | 11.67039 | 6313 ft | 247 kts | 113° |
| 2026-04-21 15:58 | 45.62543 | 11.68974 | 6075 ft | 245 kts | 140° |
| 2026-04-21 15:58 | 45.61203 | 11.70476 | 5822 ft | 246 kts | 144° |
| 2026-04-21 15:59 | 45.59824 | 11.71917 | 5658 ft | 244 kts | 144° |
| 2026-04-21 15:59 | 45.58471 | 11.73341 | 5516 ft | 239 kts | 143° |
| 2026-04-21 15:59 | 45.57158 | 11.74740 | 5408 ft | 232 kts | 143° |
| 2026-04-21 15:59 | 45.55885 | 11.76102 | 5314 ft | 225 kts | 143° |
| 2026-04-21 16:00 | 45.54736 | 11.77559 | 5197 ft | 219 kts | 124° |
| 2026-04-21 16:00 | 45.54309 | 11.79606 | 5050 ft | 220 kts | 88° |
| 2026-04-21 16:00 | 45.54626 | 11.81757 | 4868 ft | 225 kts | 71° |
| 2026-04-21 16:00 | 45.55206 | 11.83830 | 4624 ft | 225 kts | 70° |
| 2026-04-21 16:01 | 45.55804 | 11.85894 | 4361 ft | 225 kts | 69° |
| 2026-04-21 16:01 | 45.56434 | 11.87934 | 4120 ft | 224 kts | 67° |
| 2026-04-21 16:01 | 45.57075 | 11.89954 | 3881 ft | 221 kts | 69° |
| 2026-04-21 16:01 | 45.57634 | 11.91939 | 3705 ft | 208 kts | 72° |
| 2026-04-21 16:02 | 45.58127 | 11.93801 | 3604 ft | 199 kts | 72° |
| 2026-04-21 16:02 | 45.58605 | 11.95629 | 3361 ft | 193 kts | 73° |
| 2026-04-21 16:02 | 45.59062 | 11.97378 | 3130 ft | 184 kts | 72° |
| 2026-04-21 16:02 | 45.59496 | 11.99036 | 2880 ft | 173 kts | 71° |
| 2026-04-21 16:03 | 45.59906 | 12.00604 | 2630 ft | 164 kts | 72° |
| 2026-04-21 16:03 | 45.60295 | 12.02089 | 2423 ft | 155 kts | 72° |
| 2026-04-21 16:03 | 45.60663 | 12.03495 | 2223 ft | 147 kts | 71° |
| 2026-04-21 16:03 | 45.61014 | 12.04825 | 2017 ft | 140 kts | 73° |
| 2026-04-21 16:04 | 45.61361 | 12.06157 | 1876 ft | 154 kts | 73° |
| 2026-04-21 16:04 | 45.61734 | 12.07576 | 1652 ft | 150 kts | 73° |
| 2026-04-21 16:04 | 45.62089 | 12.08919 | 1421 ft | 137 kts | 74° |
| 2026-04-21 16:04 | 45.62419 | 12.10184 | 1245 ft | 136 kts | 71° |
| 2026-04-21 16:05 | 45.62766 | 12.11502 | 1097 ft | 147 kts | 72° |
| 2026-04-21 16:05 | 45.63123 | 12.12886 | 849 ft | 143 kts | 74° |
| 2026-04-21 16:05 | 45.63480 | 12.14212 | 649 ft | 143 kts | 73° |
| 2026-04-21 16:05 | 45.63825 | 12.15532 | 435 ft | 144 kts | 74° |
| 2026-04-21 16:06 | 45.64174 | 12.16852 | 245 ft | 140 kts | 73° |
| 2026-04-21 16:06 | 45.64509 | 12.18133 | 101 ft | 134 kts | 71° |
| 2026-04-21 16:06 | 45.64805 | 12.19230 | 59 ft | 92 kts | 70° |
| 2026-04-21 16:06 | 45.64949 | 12.19789 | 52 ft | 28 kts | 69° |
| 2026-04-21 16:07 | 45.65008 | 12.20003 | 58 ft | 23 kts | 66° |
| 2026-04-21 16:07 | 45.65096 | 12.20190 | 54 ft | 23 kts | 33° |
| 2026-04-21 16:07 | 45.65235 | 12.20293 | 58 ft | 23 kts | 23° |
| 2026-04-21 16:07 | 45.65302 | 12.20381 | 60 ft | 9 kts | 64° |
| 2026-04-21 16:08 | 45.65360 | 12.20379 | 58 ft | 4 kts | 337° |
| 2026-04-21 16:08 | 45.65368 | 12.20375 | 60 ft | 2 kts | 338° |
| 2026-04-21 16:08 | 45.65371 | 12.20373 | 60 ft | 0 kts | 339° |